Time;durP1;ratioP1;P1;durP2;ratioP2;P2;SDS_P1;SDS_P2;PMS_P1;PMS_P2;Temp;Humidity;BMP_temperature;BMP_pressure;BME280_temperature;BME280_humidity;BME280_pressure;Samples;Min_cycle;Max_cycle;Signal;HPM_P1;HPM_P2
2024/04/08 00:00:45;;;;;;;8.30;3.05;;;8.50;99.90;;;7.78;100.00;100567.03;4152710;28;20040;-56
2024/04/08 00:02:49;;;;;;;7.03;3.08;;;8.40;99.90;;;7.77;100.00;100568.84;4152757;28;20026;-50
2024/04/08 00:04:50;;;;;;;13.52;2.35;;;8.40;99.90;;;7.73;100.00;100564.03;4143078;28;20026;-51
2024/04/08 00:06:51;;;;;;;9.23;2.75;;;8.40;99.90;;;7.70;100.00;100565.13;4136320;28;20026;-54
2024/04/08 00:08:52;;;;;;;12.32;3.83;;;8.40;99.90;;;7.68;100.00;100564.44;4141368;28;20018;-53
2024/04/08 00:10:53;;;;;;;6.80;2.35;;;8.40;99.90;;;7.67;100.00;100559.34;4152417;28;20030;-54
2024/04/08 00:12:54;;;;;;;11.00;2.90;;;8.40;99.90;;;7.65;100.00;100564.72;4152493;28;20037;-54
2024/04/08 00:14:55;;;;;;;10.02;3.42;;;8.30;99.90;;;7.65;100.00;100569.13;4138307;28;20056;-56
2024/04/08 00:16:56;;;;;;;18.00;3.30;;;8.40;99.90;;;7.69;100.00;100562.63;4136296;28;20030;-55
2024/04/08 00:18:57;;;;;;;10.98;3.00;;;8.40;99.90;;;7.69;100.00;100573.97;4136226;28;20031;-53
2024/04/08 00:21:05;;;;;;;10.95;2.97;;;8.40;99.90;;;7.71;100.00;100574.66;4147793;28;20030;-53
2024/04/08 00:23:06;;;;;;;10.80;3.38;;;8.40;99.90;;;7.73;100.00;100571.91;4137444;28;20034;-54
2024/04/08 00:25:08;;;;;;;10.68;3.13;;;8.40;99.90;;;7.77;100.00;100579.34;4157430;28;20056;-56
2024/04/08 00:27:09;;;;;;;6.88;2.10;;;8.40;99.90;;;7.82;100.00;100573.66;4136286;28;20094;-54
2024/04/08 00:29:10;;;;;;;11.38;3.10;;;8.50;99.90;;;7.89;100.00;100564.22;4136117;28;20045;-55
2024/04/08 00:31:10;;;;;;;14.43;2.92;;;8.50;99.90;;;7.94;100.00;100550.69;4135951;28;20026;-56
2024/04/08 00:33:11;;;;;;;17.17;4.55;;;8.60;99.90;;;7.99;100.00;100543.19;4138261;28;20042;-55
2024/04/08 00:35:12;;;;;;;10.98;3.30;;;8.70;99.90;;;8.07;100.00;100556.44;4152061;28;20085;-51
2024/04/08 00:37:13;;;;;;;13.90;4.05;;;8.70;99.90;;;8.09;100.00;100544.81;4136072;28;20038;-52
2024/04/08 00:39:14;;;;;;;11.13;3.70;;;8.70;99.90;;;8.16;100.00;100559.00;4152841;28;20422;-54
2024/04/08 00:41:14;;;;;;;8.55;3.30;;;8.80;99.90;;;8.24;100.00;100558.31;4151982;28;20048;-54
2024/04/08 00:43:15;;;;;;;9.60;3.50;;;8.90;99.90;;;8.31;100.00;100562.03;4153655;28;20057;-55
2024/04/08 00:45:16;;;;;;;22.20;4.55;;;8.90;99.90;;;8.42;100.00;100555.75;4147557;28;20049;-51
2024/04/08 00:47:17;;;;;;;10.63;3.92;;;9.00;99.90;;;8.53;100.00;100553.75;4135801;28;20052;-54
2024/04/08 00:49:19;;;;;;;29.48;4.93;;;9.10;99.90;;;8.59;100.00;100539.19;4136018;28;20026;-54
2024/04/08 00:51:20;;;;;;;12.45;3.60;;;9.20;99.90;;;8.66;100.00;100527.91;4144366;28;20034;-54
2024/04/08 00:53:23;;;;;;;17.20;3.90;;;9.30;99.90;;;8.73;100.00;100525.53;4154245;28;20024;-51
2024/04/08 00:55:24;;;;;;;9.50;3.78;;;9.40;99.90;;;8.78;100.00;100526.72;4150864;28;20030;-54
2024/04/08 00:57:25;;;;;;;9.20;4.25;;;9.40;99.90;;;8.84;100.00;100523.50;4152241;28;20033;-56
2024/04/08 00:59:27;;;;;;;14.27;4.57;;;9.50;99.90;;;8.89;100.00;100518.63;4151963;28;20493;-53
2024/04/08 01:01:29;;;;;;;10.82;3.50;;;9.50;99.90;;;8.96;100.00;100507.50;4150766;28;20153;-51
2024/04/08 01:03:30;;;;;;;6.03;3.10;;;9.60;99.90;;;9.01;100.00;100495.53;4153709;28;20021;-56
2024/04/08 01:05:31;;;;;;;7.07;3.05;;;9.70;99.90;;;9.03;100.00;100498.84;4135918;28;20049;-54
2024/04/08 01:07:36;;;;;;;11.75;3.65;;;9.70;99.90;;;9.08;100.00;100493.94;4134648;28;20033;-52
2024/04/08 01:09:36;;;;;;;;;;;9.70;99.90;;;9.07;100.00;100487.03;4136216;28;20105;-55
2024/04/08 01:11:37;;;;;;;20.63;3.75;;;9.70;99.90;;;9.12;100.00;100486.56;4136873;28;19916;-55
2024/04/08 01:13:40;;;;;;;12.63;3.67;;;9.80;99.90;;;9.13;100.00;100469.81;4139787;28;20057;-56
2024/04/08 01:15:41;;;;;;;22.08;4.90;;;9.80;99.90;;;9.13;100.00;100456.66;4139063;28;20081;-52
2024/04/08 01:17:42;;;;;;;44.17;5.57;;;9.80;99.90;;;9.14;100.00;100458.31;4138920;28;20034;-56
2024/04/08 01:19:44;;;;;;;30.70;4.65;;;9.80;99.90;;;9.14;100.00;100460.94;4140351;28;20069;-54
2024/04/08 01:21:46;;;;;;;13.30;3.47;;;9.80;99.90;;;9.12;100.00;100476.88;4150041;28;20026;-55
2024/04/08 01:23:46;;;;;;;40.20;5.85;;;9.80;99.90;;;9.13;100.00;100472.44;4148651;28;20037;-52
2024/04/08 01:25:47;;;;;;;6.13;2.85;;;9.80;99.90;;;9.13;100.00;100467.19;4148132;28;20031;-54
2024/04/08 01:27:48;;;;;;;12.75;3.67;;;9.80;99.90;;;9.13;100.00;100467.19;4138581;28;20026;-55
2024/04/08 01:29:49;;;;;;;18.10;3.65;;;9.80;99.90;;;9.09;100.00;100460.56;4138776;28;20065;-55
2024/04/08 01:31:50;;;;;;;39.70;4.03;;;9.80;99.90;;;9.12;100.00;100468.16;4138696;28;20050;-54
2024/04/08 01:33:51;;;;;;;25.17;3.83;;;9.80;99.90;;;9.07;100.00;100454.63;4149808;28;20085;-53
2024/04/08 01:35:59;;;;;;;56.30;4.47;;;9.80;99.90;;;9.05;100.00;100453.97;4142041;28;20037;-53
2024/04/08 01:38:00;;;;;;;9.27;2.83;;;9.80;99.90;;;8.99;100.00;100450.13;4138706;28;20034;-54
2024/04/08 01:40:01;;;;;;;11.77;3.75;;;9.70;99.90;;;8.94;100.00;100443.69;4138365;28;20481;-54
2024/04/08 01:42:02;;;;;;;3.72;2.20;;;9.70;99.90;;;8.88;100.00;100431.97;4138626;28;20027;-55
2024/04/08 01:44:03;;;;;;;8.65;2.25;;;9.60;99.90;;;8.81;100.00;100431.75;4148107;28;20035;-51
2024/04/08 01:46:05;;;;;;;8.20;2.60;;;9.50;99.90;;;8.73;100.00;100423.78;4138462;28;20034;-56
2024/04/08 01:48:06;;;;;;;3.55;2.47;;;9.50;99.90;;;8.67;100.00;100416.50;4138107;28;20070;-55
2024/04/08 01:50:07;;;;;;;8.95;2.50;;;9.40;99.90;;;8.63;100.00;100417.78;4138356;28;20034;-52
2024/04/08 01:52:08;;;;;;;10.45;2.55;;;9.40;99.90;;;8.60;100.00;100427.81;4138217;28;20038;-52
2024/04/08 01:54:12;;;;;;;5.60;2.80;;;9.30;99.90;;;8.56;100.00;100436.94;4144933;28;20026;-55
2024/04/08 01:56:13;;;;;;;6.50;2.53;;;9.30;99.90;;;8.51;100.00;100424.25;4154485;28;20548;-56
2024/04/08 01:58:13;;;;;;;6.63;2.35;;;9.20;99.90;;;8.48;100.00;100435.09;4154481;28;20087;-54
2024/04/08 02:00:14;;;;;;;4.88;2.80;;;9.20;99.90;;;8.46;100.00;100431.75;4154218;28;20088;-56
2024/04/08 02:02:15;;;;;;;8.73;3.28;;;9.20;99.90;;;8.45;100.00;100430.13;4154400;28;20014;-55
2024/04/08 02:04:16;;;;;;;8.73;2.60;;;9.20;99.90;;;8.40;100.00;100428.91;4146155;28;20034;-53
2024/04/08 02:06:17;;;;;;;3.67;2.15;;;9.10;99.90;;;8.40;100.00;100437.63;4138203;28;20019;-54
2024/04/08 02:08:18;;;;;;;5.32;2.40;;;9.10;99.90;;;8.38;100.00;100436.13;4137953;28;20034;-54
2024/04/08 02:10:19;;;;;;;9.43;2.35;;;9.10;99.90;;;8.43;100.00;100434.69;4138070;28;20034;-54
2024/04/08 02:12:19;;;;;;;6.53;2.80;;;9.10;99.90;;;8.45;100.00;100426.69;4137988;28;20409;-55
2024/04/08 02:14:20;;;;;;;4.93;2.78;;;9.10;99.90;;;8.44;100.00;100417.97;4155751;28;20026;-56
2024/04/08 02:16:21;;;;;;;5.93;2.72;;;9.20;99.90;;;8.42;100.00;100400.69;4151644;28;20034;-54
2024/04/08 02:18:22;;;;;;;9.05;3.17;;;9.20;99.90;;;8.40;100.00;100400.00;4154298;28;20135;-54
2024/04/08 02:20:23;;;;;;;7.65;3.17;;;9.10;99.90;;;8.37;100.00;100387.97;4154062;28;20030;-52
2024/04/08 02:22:24;;;;;;;13.45;3.65;;;9.10;99.90;;;8.31;100.00;100381.53;4143876;28;20053;-53
2024/04/08 02:24:24;;;;;;;5.32;2.78;;;9.00;99.90;;;8.25;100.00;100371.59;4156253;28;20055;-55
2024/04/08 02:26:25;;;;;;;9.45;3.05;;;9.00;99.90;;;8.18;100.00;100370.53;4153957;28;20026;-53
2024/04/08 02:28:26;;;;;;;7.65;3.03;;;8.90;99.90;;;8.08;100.00;100359.28;4154036;28;20026;-57
2024/04/08 02:30:27;;;;;;;4.50;2.60;;;8.80;99.90;;;7.98;100.00;100355.88;4153996;28;20460;-54
2024/04/08 02:32:28;;;;;;;4.93;3.22;;;8.70;99.90;;;7.94;100.00;100351.09;4154030;28;20037;-55
2024/04/08 02:34:30;;;;;;;7.55;3.10;;;8.70;99.90;;;7.93;100.00;100354.69;4158549;28;20090;-55
2024/04/08 02:36:30;;;;;;;5.30;2.45;;;8.70;99.90;;;7.89;100.00;100343.63;4136609;28;20084;-55
2024/04/08 02:38:34;;;;;;;8.75;3.75;;;8.60;99.90;;;7.90;100.00;100349.72;4137583;28;20486;-55
2024/04/08 02:40:36;;;;;;;5.40;2.75;;;8.60;99.90;;;7.87;100.00;100342.97;4137434;28;20497;-53
2024/04/08 02:42:38;;;;;;;7.53;3.17;;;8.60;99.90;;;7.86;100.00;100325.56;4137395;28;20066;-55
2024/04/08 02:44:38;;;;;;;4.75;2.90;;;8.60;99.90;;;7.85;100.00;100316.03;4147151;28;20030;-52
2024/04/08 02:46:39;;;;;;;4.07;2.60;;;8.60;99.90;;;7.82;100.00;100311.09;4161038;28;20049;-54
2024/04/08 02:48:42;;;;;;;4.82;2.90;;;8.50;99.90;;;7.82;100.00;100330.28;4145534;28;20027;-55
2024/04/08 02:50:42;;;;;;;6.18;3.22;;;8.50;99.90;;;7.85;100.00;100329.19;4137494;28;20094;-52
2024/04/08 02:52:43;;;;;;;5.63;2.80;;;8.60;99.90;;;7.94;100.00;100333.53;4137633;28;20026;-54
2024/04/08 02:54:44;;;;;;;7.07;3.58;;;8.60;99.90;;;8.02;100.00;100327.53;4148279;28;20033;-54
2024/04/08 02:56:48;;;;;;;6.13;3.30;;;8.70;99.90;;;8.10;100.00;100324.97;4153373;28;20044;-54
2024/04/08 02:58:49;;;;;;;6.32;3.10;;;8.80;99.90;;;8.17;100.00;100326.84;4151629;28;20034;-55
2024/04/08 03:00:50;;;;;;;6.22;3.35;;;8.80;99.90;;;8.21;100.00;100317.66;4137085;28;20034;-56
2024/04/08 03:02:50;;;;;;;8.75;2.63;;;8.90;99.90;;;8.20;100.00;100317.84;4137209;28;20077;-54
2024/04/08 03:04:52;;;;;;;3.33;2.42;;;8.90;99.90;;;8.20;100.00;100315.22;4161699;28;20080;-51
2024/04/08 03:06:53;;;;;;;4.40;2.47;;;8.90;99.90;;;8.23;100.00;100314.91;4138566;28;20030;-50
2024/04/08 03:08:54;;;;;;;5.95;3.17;;;8.90;99.90;;;8.23;100.00;100299.97;4137235;28;20030;-56
2024/04/08 03:10:58;;;;;;;13.07;4.25;;;8.90;99.90;;;8.23;100.00;100301.78;4136929;28;20456;-55
2024/04/08 03:12:59;;;;;;;11.10;4.07;;;8.90;99.90;;;8.24;100.00;100298.97;4137043;28;20041;-53
2024/04/08 03:15:00;;;;;;;9.75;3.05;;;8.90;99.90;;;8.23;100.00;100283.38;4158741;28;20042;-54
2024/04/08 03:17:01;;;;;;;9.40;3.20;;;8.90;99.90;;;8.26;100.00;100288.34;4137210;28;20089;-54
2024/04/08 03:19:01;;;;;;;6.00;2.90;;;8.90;99.90;;;8.31;100.00;100276.41;4137177;28;20077;-54
2024/04/08 03:21:04;;;;;;;9.85;3.67;;;9.00;99.90;;;8.33;100.00;100271.81;4149082;28;20042;-55
2024/04/08 03:23:05;;;;;;;18.90;4.47;;;9.00;99.90;;;8.36;100.00;100269.88;4137299;28;20136;-56
2024/04/08 03:25:06;;;;;;;18.30;4.65;;;9.00;99.90;;;8.34;100.00;100257.72;4152270;28;20409;-56
2024/04/08 03:27:07;;;;;;;7.43;4.15;;;9.10;99.90;;;8.42;100.00;100264.03;4137023;28;20018;-52
2024/04/08 03:29:08;;;;;;;8.10;3.72;;;9.10;99.90;;;8.44;100.00;100255.00;4136803;28;20544;-55
2024/04/08 03:31:09;;;;;;;13.55;4.63;;;9.10;99.90;;;8.45;100.00;100248.78;4136584;28;20022;-56
2024/04/08 03:33:09;;;;;;;10.43;4.72;;;9.10;99.90;;;8.49;100.00;100236.94;4137021;28;20030;-53
2024/04/08 03:35:10;;;;;;;7.20;4.65;;;9.20;99.90;;;8.49;100.00;100231.69;4147561;28;20030;-54
2024/04/08 03:37:11;;;;;;;9.63;5.30;;;9.20;99.90;;;8.51;100.00;100234.97;4136709;28;20037;-54
2024/04/08 03:39:12;;;;;;;10.77;5.00;;;9.20;99.90;;;8.47;100.00;100227.56;4136533;28;20030;-54
2024/04/08 03:41:13;;;;;;;5.97;4.70;;;9.20;99.90;;;8.50;100.00;100230.72;4136714;28;20053;-53
2024/04/08 03:43:14;;;;;;;5.68;4.43;;;9.20;99.90;;;8.51;100.00;100227.09;4136621;28;20073;-56
2024/04/08 03:45:15;;;;;;;13.73;5.80;;;9.20;99.90;;;8.49;100.00;100229.06;4136629;28;20034;-54
2024/04/08 03:47:16;;;;;;;19.13;5.43;;;9.20;99.90;;;8.49;100.00;100220.34;4136367;28;20134;-52
2024/04/08 03:49:17;;;;;;;11.68;5.90;;;9.20;99.90;;;8.50;100.00;100222.84;4136726;28;20034;-55
2024/04/08 03:51:18;;;;;;;15.00;5.68;;;9.20;99.90;;;8.48;100.00;100219.56;4136457;28;20034;-53
2024/04/08 03:53:19;;;;;;;13.48;5.80;;;9.20;99.90;;;8.50;100.00;100225.47;4136437;28;20046;-53
2024/04/08 03:55:25;;;;;;;7.18;5.47;;;9.20;99.90;;;8.54;100.00;100224.16;4147118;28;20101;-52
2024/04/08 03:57:26;;;;;;;10.13;5.53;;;9.20;99.90;;;8.52;100.00;100215.59;4152791;28;20117;-56
2024/04/08 03:59:27;;;;;;;6.75;4.90;;;9.20;99.90;;;8.51;100.00;100200.81;4152545;28;20101;-55
2024/04/08 04:01:28;;;;;;;7.05;5.03;;;9.20;99.90;;;8.53;100.00;100198.03;4152614;28;20032;-54
2024/04/08 04:03:28;;;;;;;9.52;5.78;;;9.20;99.90;;;8.54;100.00;100197.88;4152500;28;20481;-54
2024/04/08 04:05:29;;;;;;;31.23;7.22;;;9.20;99.90;;;8.52;100.00;100201.63;4152553;28;20485;-54
2024/04/08 04:07:30;;;;;;;8.48;5.18;;;9.20;99.90;;;8.55;100.00;100193.44;4152782;28;20037;-52
2024/04/08 04:09:31;;;;;;;20.15;6.43;;;9.20;99.90;;;8.55;100.00;100194.28;4152477;28;20032;-55
2024/04/08 04:11:32;;;;;;;20.17;6.65;;;9.20;99.90;;;8.58;100.00;100199.22;4152303;28;20038;-56
2024/04/08 04:13:33;;;;;;;22.85;7.50;;;9.20;99.90;;;8.62;100.00;100195.31;4152746;28;20033;-53
2024/04/08 04:15:33;;;;;;;9.20;5.40;;;9.30;99.90;;;8.64;100.00;100185.44;4152620;28;20038;-53
2024/04/08 04:17:34;;;;;;;13.63;7.07;;;9.30;99.90;;;8.64;100.00;100177.56;4148328;28;20030;-55
2024/04/08 04:19:35;;;;;;;21.23;6.38;;;9.30;99.90;;;8.65;100.00;100181.00;4136567;28;20034;-54
2024/04/08 04:21:36;;;;;;;9.85;5.65;;;9.30;99.90;;;8.66;100.00;100178.22;4148669;28;20031;-51
2024/04/08 04:23:37;;;;;;;11.82;5.95;;;9.30;99.90;;;8.66;100.00;100180.03;4136135;28;20061;-55
2024/04/08 04:25:38;;;;;;;19.35;6.60;;;9.40;99.90;;;8.67;100.00;100176.41;4136113;28;20482;-54
2024/04/08 04:27:39;;;;;;;15.43;7.05;;;9.40;99.90;;;8.66;100.00;100166.91;4136125;28;20033;-52
2024/04/08 04:29:40;;;;;;;8.77;5.80;;;9.30;99.90;;;8.66;100.00;100159.00;4136058;28;20037;-53
2024/04/08 04:31:44;;;;;;;10.00;6.43;;;9.40;99.90;;;8.66;100.00;100153.75;4136145;28;20409;-54
2024/04/08 04:33:45;;;;;;;;;;;9.30;99.90;;;8.59;100.00;100150.94;4136434;28;20045;-52
2024/04/08 04:36:00;;;;;;;9.30;6.38;;;9.40;99.90;;;8.66;100.00;100165.06;4136029;28;19910;-52
2024/04/08 04:38:00;;;;;;;;;;;9.40;99.90;;;8.64;100.00;100168.84;4136558;28;20026;-55
2024/04/08 04:40:01;;;;;;;7.43;5.60;;;9.40;99.90;;;8.66;100.00;100159.81;4135972;28;20288;-54
2024/04/08 04:42:03;;;;;;;10.40;6.53;;;9.40;99.90;;;8.69;100.00;100154.25;4136074;28;20029;-55
2024/04/08 04:44:04;;;;;;;18.65;9.10;;;9.40;99.90;;;8.73;100.00;100160.00;4136047;28;20104;-53
2024/04/08 04:46:05;;;;;;;23.67;8.98;;;9.40;99.90;;;8.73;100.00;100160.00;4136687;28;20410;-52
2024/04/08 04:48:06;;;;;;;13.20;7.60;;;9.40;99.90;;;8.75;100.00;100158.88;4139089;28;20051;-55
2024/04/08 04:50:07;;;;;;;10.77;8.23;;;9.50;99.90;;;8.76;100.00;100155.25;4139196;28;20025;-56
2024/04/08 04:52:13;;;;;;;14.38;7.60;;;9.50;99.90;;;8.79;100.00;100154.94;4157588;28;20029;-56
2024/04/08 04:54:13;;;;;;;11.32;6.85;;;9.50;99.90;;;8.79;100.00;100154.94;4141059;28;20081;-55
2024/04/08 04:56:14;;;;;;;28.20;7.25;;;9.50;99.90;;;8.80;100.00;100145.25;4155320;28;20182;-55
2024/04/08 04:58:15;;;;;;;8.07;5.32;;;9.50;99.90;;;8.82;100.00;100148.53;4155566;28;20044;-56
2024/04/08 05:00:16;;;;;;;13.15;7.13;;;9.50;99.90;;;8.85;100.00;100149.06;4155186;28;20037;-55
2024/04/08 05:02:17;;;;;;;15.23;5.80;;;9.50;99.90;;;8.85;100.00;100154.31;4155162;28;20393;-54
2024/04/08 05:04:18;;;;;;;24.48;8.20;;;9.50;99.90;;;8.85;100.00;100142.97;4155360;28;20026;-53
2024/04/08 05:06:19;;;;;;;8.50;5.78;;;9.50;99.90;;;8.87;100.00;100144.44;4155310;28;20030;-54
2024/04/08 05:08:21;;;;;;;12.52;6.32;;;9.50;99.90;;;8.88;100.00;100143.47;4155149;28;20030;-52
2024/04/08 05:10:21;;;;;;;14.95;5.90;;;9.60;99.90;;;8.87;100.00;100135.72;4155288;28;20034;-54
2024/04/08 05:12:22;;;;;;;10.95;5.95;;;9.50;99.90;;;8.89;100.00;100133.78;4154304;28;20457;-52
2024/04/08 05:14:23;;;;;;;8.27;5.15;;;9.60;99.90;;;8.90;100.00;100122.25;4138904;28;20023;-50
2024/04/08 05:16:24;;;;;;;14.75;5.72;;;9.60;99.90;;;8.89;100.00;100118.81;4139083;28;20031;-55
2024/04/08 05:18:25;;;;;;;10.75;6.63;;;9.60;99.90;;;8.90;100.00;100106.47;4138893;28;20040;-55
2024/04/08 05:20:29;;;;;;;11.98;6.32;;;9.60;99.90;;;8.88;100.00;100109.28;4146185;28;20405;-54
2024/04/08 05:22:30;;;;;;;18.70;6.90;;;9.60;99.90;;;8.88;100.00;100106.66;4144317;28;20049;-55
2024/04/08 05:24:31;;;;;;;17.30;6.45;;;9.60;99.90;;;8.88;100.00;100116.34;4138819;28;20510;-55
2024/04/08 05:26:32;;;;;;;10.73;5.70;;;9.60;99.90;;;8.86;100.00;100100.75;4138647;28;20039;-52
2024/04/08 05:28:33;;;;;;;11.75;5.65;;;9.60;99.90;;;8.84;100.00;100099.25;4138852;28;20516;-52
2024/04/08 05:30:34;;;;;;;6.63;5.07;;;9.60;99.90;;;8.85;100.00;100109.59;4138785;28;20027;-56
2024/04/08 05:32:35;;;;;;;6.68;4.90;;;9.60;99.90;;;8.88;100.00;100111.09;4138573;28;20030;-52
2024/04/08 05:34:36;;;;;;;5.35;4.25;;;9.60;99.90;;;8.92;100.00;100116.84;4138766;28;20032;-54
2024/04/08 05:36:37;;;;;;;11.40;4.75;;;9.60;99.90;;;8.94;100.00;100110.44;4138494;28;20034;-54
2024/04/08 05:38:38;;;;;;;8.30;5.15;;;9.60;99.90;;;8.97;100.00;100110.13;4138694;28;20031;-53
2024/04/08 05:40:40;;;;;;;9.95;5.47;;;9.60;99.90;;;8.99;100.00;100091.56;4138282;28;20034;-54
2024/04/08 05:42:41;;;;;;;10.23;5.20;;;9.70;99.90;;;9.03;100.00;100092.88;4138424;28;20022;-54
2024/04/08 05:44:42;;;;;;;8.98;5.20;;;9.70;99.90;;;9.04;100.00;100079.56;4138556;28;20027;-54
2024/04/08 05:46:43;;;;;;;12.25;6.28;;;9.70;99.90;;;9.07;100.00;100084.50;4138401;28;20070;-56
2024/04/08 05:48:44;;;;;;;10.25;4.95;;;9.70;99.90;;;9.07;100.00;100067.88;4143843;28;20032;-54
2024/04/08 05:50:48;;;;;;;6.38;5.22;;;9.80;99.90;;;9.12;100.00;100076.09;4138530;28;20389;-54
2024/04/08 05:52:50;;;;;;;8.43;5.22;;;9.80;99.90;;;9.14;100.00;100079.41;4138500;28;20389;-56
2024/04/08 05:54:51;;;;;;;5.72;4.65;;;9.80;99.90;;;9.19;100.00;100071.84;4145148;28;20048;-54
2024/04/08 05:56:52;;;;;;;6.45;4.38;;;9.80;99.90;;;9.19;100.00;100063.97;4153866;28;20026;-53
2024/04/08 05:58:53;;;;;;;8.05;4.25;;;9.90;99.90;;;9.22;100.00;100066.25;4154661;28;20052;-52
2024/04/08 06:00:54;;;;;;;5.57;4.60;;;9.90;99.90;;;9.25;100.00;100063.31;4154307;28;20030;-54
2024/04/08 06:02:55;;;;;;;7.13;5.00;;;9.90;99.90;;;9.28;100.00;100063.81;4154342;28;20030;-55
2024/04/08 06:04:57;;;;;;;6.70;4.70;;;9.90;99.90;;;9.31;100.00;100060.00;4154475;28;20026;-55
2024/04/08 06:06:57;;;;;;;7.68;4.97;;;10.00;99.90;;;9.36;100.00;100053.28;4154543;28;20079;-53
2024/04/08 06:09:05;;;;;;;7.65;4.68;;;10.00;99.90;;;9.47;100.00;100060.00;4145739;28;20030;-53
2024/04/08 06:11:06;;;;;;;12.38;5.03;;;10.10;99.90;;;9.51;100.00;100053.41;4148731;28;20034;-55
2024/04/08 06:13:07;;;;;;;7.18;4.55;;;10.20;99.90;;;9.57;100.00;100050.13;4138062;28;20026;-56
2024/04/08 06:15:08;;;;;;;6.82;4.65;;;10.20;99.90;;;9.64;100.00;100052.91;4138102;28;20027;-53
2024/04/08 06:17:09;;;;;;;7.03;5.35;;;10.30;99.90;;;9.70;100.00;100049.63;4137824;28;20037;-51
2024/04/08 06:19:10;;;;;;;6.03;4.07;;;10.40;99.90;;;9.74;100.00;100050.91;4138003;28;20030;-56
2024/04/08 06:21:10;;;;;;;6.60;4.65;;;10.40;99.90;;;9.75;100.00;100056.03;4150962;28;20030;-55
2024/04/08 06:23:11;;;;;;;6.50;4.82;;;10.40;99.90;;;9.79;100.00;100049.44;4138083;28;20073;-52
2024/04/08 06:25:12;;;;;;;6.05;4.60;;;10.50;99.90;;;9.80;100.00;100045.81;4137687;28;20409;-54
2024/04/08 06:27:13;;;;;;;5.95;4.38;;;10.50;99.90;;;9.82;100.00;100043.84;4137827;28;20394;-55
2024/04/08 06:29:14;;;;;;;6.82;4.68;;;10.50;99.90;;;9.87;100.00;100035.41;4137761;28;20030;-55
2024/04/08 06:31:15;;;;;;;5.43;3.97;;;10.50;99.90;;;9.93;100.00;100040.84;4137630;28;20034;-54
2024/04/08 06:33:15;;;;;;;9.02;4.38;;;10.60;99.90;;;10.00;100.00;100036.53;4137620;28;20049;-55
2024/04/08 06:35:17;;;;;;;6.57;4.00;;;10.60;99.90;;;10.11;100.00;100026.63;4137749;28;20034;-52
2024/04/08 06:37:17;;;;;;;7.70;3.60;;;10.70;99.90;;;10.20;100.00;100033.53;4137667;28;20041;-54
2024/04/08 06:39:18;;;;;;;5.05;3.85;;;10.80;99.90;;;10.28;100.00;100026.41;4137468;28;20031;-54
2024/04/08 06:41:20;;;;;;;5.20;3.55;;;10.90;99.90;;;10.33;100.00;100021.47;4137613;28;20022;-56
2024/04/08 06:43:21;;;;;;;6.55;3.72;;;10.90;99.90;;;10.35;100.00;100022.09;4137595;28;20030;-52
2024/04/08 06:45:21;;;;;;;4.88;4.00;;;10.90;99.90;;;10.30;100.00;100027.09;4156844;28;20022;-53
2024/04/08 06:47:24;;;;;;;6.78;4.43;;;10.90;99.90;;;10.24;100.00;100032.22;4140637;28;20042;-53
2024/04/08 06:49:25;;;;;;;4.95;3.90;;;10.90;99.90;;;10.21;100.00;100043.09;4137472;28;20030;-53
2024/04/08 06:51:26;;;;;;;6.03;3.97;;;10.90;99.90;;;10.22;100.00;100047.34;4137630;28;20038;-55
2024/04/08 06:53:27;;;;;;;5.68;4.15;;;10.90;99.90;;;10.11;100.00;100051.16;4137468;28;20023;-52
2024/04/08 06:55:28;;;;;;;8.35;4.55;;;10.80;99.90;;;10.08;100.00;100037.50;4149284;28;20026;-52
2024/04/08 06:57:28;;;;;;;5.43;4.18;;;10.80;99.90;;;9.96;100.00;100040.50;4153647;28;20033;-54
2024/04/08 06:59:29;;;;;;;6.82;4.53;;;10.70;99.90;;;10.02;100.00;100034.56;4153631;28;20488;-55
2024/04/08 07:01:30;;;;;;;6.32;4.10;;;10.70;99.90;;;10.10;100.00;100046.88;4153564;28;20018;-54
2024/04/08 07:03:32;;;;;;;8.32;4.05;;;10.70;99.90;;;10.15;100.00;100054.31;4153308;28;20026;-53
2024/04/08 07:05:33;;;;;;;7.28;4.30;;;10.80;99.90;;;10.18;100.00;100060.06;4153457;28;20057;-54
2024/04/08 07:07:34;;;;;;;5.95;3.65;;;10.80;99.90;;;10.22;100.00;100050.81;4153479;28;20030;-53
2024/04/08 07:09:34;;;;;;;3.80;2.97;;;10.80;99.90;;;10.26;100.00;100036.31;4152230;28;20058;-55
2024/04/08 07:11:35;;;;;;;6.28;3.20;;;10.90;99.90;;;10.32;100.00;100019.00;4154964;28;20021;-52
2024/04/08 07:13:38;;;;;;;4.53;3.72;;;10.90;99.90;;;10.34;100.00;100004.63;4150688;28;20062;-56
2024/04/08 07:15:39;;;;;;;4.97;3.30;;;11.00;99.90;;;10.40;100.00;99990.75;4137255;28;20022;-55
2024/04/08 07:17:40;;;;;;;5.47;3.55;;;11.10;99.90;;;10.49;100.00;99978.34;4142785;28;20033;-55
2024/04/08 07:19:40;;;;;;;7.38;4.57;;;11.10;99.90;;;10.58;100.00;99982.59;4138065;28;20034;-55
2024/04/08 07:21:41;;;;;;;6.43;4.13;;;11.20;99.90;;;10.69;100.00;99992.75;4148877;28;20026;-53
2024/04/08 07:23:42;;;;;;;6.20;3.88;;;11.30;99.90;;;10.78;100.00;99983.75;4137004;28;20026;-55
2024/04/08 07:25:44;;;;;;;4.72;3.38;;;11.40;99.90;;;10.88;100.00;99968.53;4136828;28;20053;-55
2024/04/08 07:27:45;;;;;;;4.30;3.20;;;11.50;99.90;;;10.92;100.00;99963.72;4136947;28;20512;-53
2024/04/08 07:29:46;;;;;;;5.05;3.70;;;11.60;99.90;;;10.84;100.00;99972.50;4137090;28;20034;-55
2024/04/08 07:31:47;;;;;;;7.97;4.03;;;11.50;99.90;;;10.81;100.00;99962.31;4136848;28;20030;-55
2024/04/08 07:33:48;;;;;;;5.57;3.85;;;11.50;99.90;;;10.79;100.00;99955.56;4136689;28;20449;-53
2024/04/08 07:35:49;;;;;;;4.40;3.40;;;11.50;99.90;;;10.77;100.00;99949.66;4136606;28;20030;-56
2024/04/08 07:37:50;;;;;;;6.32;3.45;;;11.50;99.90;;;10.73;100.00;99956.28;4136866;28;20585;-54
2024/04/08 07:39:50;;;;;;;5.53;3.45;;;11.50;99.90;;;10.65;100.00;100004.63;4144059;28;20974;-56
2024/04/08 07:41:51;;;;;;;7.43;4.13;;;11.40;99.90;;;10.59;100.00;99962.31;4152953;28;20022;-51
2024/04/08 07:43:52;;;;;;;6.20;4.75;;;11.30;99.90;;;10.49;100.00;99915.91;4152826;28;20026;-56
2024/04/08 07:45:53;;;;;;;8.10;4.43;;;11.20;99.90;;;10.40;100.00;99937.22;4153126;28;20021;-56
2024/04/08 07:47:54;;;;;;;9.82;6.45;;;11.20;99.90;;;10.33;100.00;99931.84;4152664;28;20042;-54
2024/04/08 07:49:56;;;;;;;10.40;4.90;;;11.10;99.90;;;10.28;100.00;99918.34;4152817;28;20041;-54
2024/04/08 07:51:56;;;;;;;8.63;4.32;;;11.10;99.90;;;10.30;100.00;99910.28;4152924;28;20033;-53
2024/04/08 07:53:57;;;;;;;4.65;3.58;;;11.00;99.90;;;10.32;100.00;99890.66;4152956;28;20080;-56
2024/04/08 07:56:00;;;;;;;6.65;4.47;;;11.00;99.90;;;10.33;100.00;99920.47;4153033;28;20028;-54
2024/04/08 07:58:01;;;;;;;5.35;3.88;;;11.00;99.90;;;10.35;100.00;99910.56;4148292;28;20030;-54
2024/04/08 08:00:03;;;;;;;6.47;3.97;;;11.00;99.90;;;10.44;100.00;99905.06;4136385;28;20037;-54
2024/04/08 08:02:05;;;;;;;6.82;4.32;;;11.10;99.90;;;10.57;100.00;99902.66;4136314;28;20033;-54
2024/04/08 08:04:06;;;;;;;4.60;3.58;;;11.20;99.90;;;10.66;100.00;99902.59;4136502;28;20035;-51
2024/04/08 08:06:07;;;;;;;6.63;3.92;;;11.30;99.90;;;10.77;100.00;99902.19;4136333;28;20065;-54
2024/04/08 08:08:08;;;;;;;7.00;3.97;;;11.40;99.90;;;10.91;100.00;99899.56;4136265;28;20018;-54
2024/04/08 08:10:09;;;;;;;5.22;4.32;;;11.60;99.90;;;11.16;100.00;99912.53;4136446;28;20034;-55
2024/04/08 08:12:10;;;;;;;7.85;3.97;;;11.80;99.90;;;11.42;100.00;99910.28;4136431;28;20022;-56
2024/04/08 08:14:11;;;;;;;7.95;4.82;;;12.00;99.90;;;11.60;100.00;99906.28;4136141;28;20067;-54
2024/04/08 08:16:12;;;;;;;4.93;3.92;;;12.20;99.90;;;11.73;100.00;99895.13;4136147;28;20027;-52
2024/04/08 08:18:13;;;;;;;5.07;3.95;;;12.40;99.90;;;11.80;100.00;99887.28;4136417;28;20026;-53
2024/04/08 08:20:14;;;;;;;3.03;2.53;;;12.50;99.90;;;11.82;100.00;99877.34;4141629;28;20052;-54
2024/04/08 08:22:14;;;;;;;5.10;3.50;;;12.60;99.90;;;11.79;100.00;99878.53;4143568;28;20452;-56
2024/04/08 08:24:15;;;;;;;3.70;2.85;;;12.50;99.90;;;11.79;100.00;99870.59;4159238;28;20029;-52
2024/04/08 08:26:16;;;;;;;3.88;2.90;;;12.60;99.90;;;11.75;100.00;99882.53;4137974;28;20030;-55